Weather at Singapore Changi Airport

Public forecast

Using degrees Celsius for public forecast. Weather courtesy of forecast.io.

Current aviation weather report (METAR) for Singapore Changi Airport

2022/11/30 11:00 (retrieved 28 minutes ago)

WSSS 301100Z VRB02KT 8000 -SHRA FEW014 FEW016CB FEW017TCU BKN160 24/23 Q1008 RETS NOSIG

Aviation forecast (TAF) for Singapore Changi Airport

2022/11/30 08:04 Ammendment (retrieved 3 hours ago)

TAF AMD WSSS 300800Z 3008/0112 35007KT 9999 FEW015 BKN020 TEMPO 3008/3010 3000 TSRA FEW012CB BKN015